Time;durP1;ratioP1;P1;durP2;ratioP2;P2;SDS_P1;SDS_P2;PMS_P1;PMS_P2;Temp;Humidity;BMP_temperature;BMP_pressure;BME280_temperature;BME280_humidity;BME280_pressure;Samples;Min_cycle;Max_cycle;Signal;HPM_P1;HPM_P2
2022/11/03 00:00:06;;;;;;;13.13;3.47;;;;;;;11.23;87.00;101469.50;5072698;28;20024;-34
2022/11/03 00:02:31;;;;;;;12.93;3.30;;;;;;;11.24;87.78;101469.28;5072140;28;20366;-34
2022/11/03 00:06:03;;;;;;;16.70;3.90;;;;;;;11.16;87.35;101449.78;5071914;28;20171;-34
2022/11/03 00:07:42;;;;;;;9.00;2.70;;;;;;;11.20;87.38;101461.81;5074161;28;20127;-34
2022/11/03 00:10:07;;;;;;;10.27;2.70;;;;;;;11.21;87.35;101449.94;5075706;28;20025;-34
2022/11/03 00:12:32;;;;;;;13.30;2.78;;;;;;;11.13;87.58;101426.69;5076037;28;20029;-34
2022/11/03 00:14:58;;;;;;;8.70;2.47;;;;;;;11.20;87.63;101442.88;5076042;28;20060;-34
2022/11/03 00:17:23;;;;;;;11.03;2.70;;;;;;;11.23;87.64;101443.28;5076411;28;20039;-34
2022/11/03 00:19:48;;;;;;;13.87;2.97;;;;;;;11.21;87.33;101434.53;5076398;28;20418;-34
2022/11/03 00:22:14;;;;;;;13.60;3.60;;;;;;;11.22;87.93;101435.34;5075617;28;20033;-34
2022/11/03 00:24:39;;;;;;;13.37;3.27;;;;;;;11.20;87.38;101437.47;5075755;28;20039;-34
2022/11/03 00:27:04;;;;;;;11.10;2.87;;;;;;;11.23;87.19;101429.72;5076326;28;20024;-34
2022/11/03 00:29:29;;;;;;;12.17;2.93;;;;;;;11.25;87.25;101433.03;5075812;28;20423;-34
2022/11/03 00:31:55;;;;;;;10.53;3.00;;;;;;;11.27;86.97;101424.69;5075429;28;20100;-34
2022/11/03 00:34:20;;;;;;;8.33;2.83;;;;;;;11.28;87.06;101421.78;5075640;28;20103;-34
2022/11/03 00:36:45;;;;;;;12.00;3.03;;;;;;;11.28;87.28;101424.47;5075294;28;20038;-34
2022/11/03 00:39:11;;;;;;;10.33;2.70;;;;;;;11.28;87.23;101415.53;5075382;28;20338;-34
2022/11/03 00:41:37;;;;;;;10.40;2.90;;;;;;;11.28;87.01;101416.34;5075298;28;20029;-34
2022/11/03 00:44:03;;;;;;;11.30;2.70;;;;;;;11.25;87.13;101413.25;5075514;28;20477;-34
2022/11/03 00:46:29;;;;;;;10.13;3.20;;;;;;;11.25;87.64;101402.44;5075169;28;20040;-34
2022/11/03 00:48:55;;;;;;;14.15;3.50;;;;;;;11.25;87.21;101397.00;5075597;28;20064;-34
2022/11/03 00:51:23;;;;;;;11.02;3.30;;;;;;;11.09;87.31;101365.94;5074838;28;20032;-34
2022/11/03 00:53:53;;;;;;;11.20;3.53;;;;;;;11.25;87.68;101384.31;5075546;28;20032;-34
2022/11/03 00:56:39;;;;;;;11.07;2.88;;;;;;;11.27;87.29;101382.22;5075364;28;20021;-34
2022/11/03 00:59:06;;;;;;;10.52;2.83;;;;;;;11.30;87.15;101378.22;5074701;28;20033;-33
2022/11/03 01:01:43;;;;;;;11.02;3.05;;;;;;;11.34;87.00;101374.03;5075560;28;20076;-34
2022/11/03 01:06:54;;;;;;;12.68;2.55;;;;;;;11.36;86.92;101366.50;5075125;28;20120;-34
2022/11/03 01:09:24;;;;;;;8.73;2.67;;;;;;;11.33;87.00;101351.53;5075376;28;20028;-33
2022/11/03 01:12:00;;;;;;;11.85;2.55;;;;;;;11.37;86.62;101361.91;5074409;28;20095;-33
2022/11/03 01:14:33;;;;;;;9.65;2.50;;;;;;;11.38;86.72;101350.88;5073086;28;20052;-33
2022/11/03 01:17:00;;;;;;;9.02;2.33;;;;;;;11.42;86.89;101357.50;5074904;28;20091;-33
2022/11/03 01:19:25;;;;;;;;;;;;;;;11.46;86.64;101355.16;5074817;28;20029;-34
2022/11/03 01:21:53;;;;;;;10.43;2.67;;;;;;;11.46;86.75;101347.03;5074484;28;19961;-34
2022/11/03 01:24:19;;;;;;;10.13;2.65;;;;;;;11.45;86.80;101340.78;5075186;28;20082;-34
2022/11/03 01:26:44;;;;;;;12.05;2.85;;;;;;;11.45;86.75;101343.50;5074370;28;20461;-34
2022/11/03 01:29:10;;;;;;;11.43;2.23;;;;;;;11.43;87.13;101342.06;5074183;28;20036;-34
2022/11/03 01:31:35;;;;;;;13.63;2.73;;;;;;;11.45;87.04;101340.78;5074991;28;20028;-34
2022/11/03 01:34:00;;;;;;;9.20;2.83;;;;;;;11.45;87.07;101334.53;5074447;28;20031;-33
2022/11/03 01:36:26;;;;;;;10.40;2.40;;;;;;;11.46;87.14;101328.06;5074058;28;20375;-34
2022/11/03 01:38:53;;;;;;;10.33;2.33;;;;;;;11.47;87.05;101330.56;5074669;28;20025;-34
2022/11/03 01:41:22;;;;;;;11.48;2.70;;;;;;;11.48;87.38;101321.38;5073857;28;20089;-34
2022/11/03 01:44:06;;;;;;;11.38;2.50;;;;;;;11.46;86.89;101317.22;5074013;28;20031;-34
2022/11/03 01:46:37;;;;;;;11.40;2.40;;;;;;;11.56;87.04;101328.38;5074621;28;20032;-34
2022/11/03 01:49:06;;;;;;;14.05;3.17;;;;;;;11.56;87.31;101312.13;5073880;28;20108;-34
2022/11/03 01:51:35;;;;;;;13.70;2.88;;;;;;;11.59;86.81;101303.56;5073784;28;20043;-34
2022/11/03 01:54:04;;;;;;;9.07;2.40;;;;;;;11.62;86.96;101305.81;5073426;28;20116;-34
2022/11/03 01:56:33;;;;;;;12.38;2.90;;;;;;;11.60;86.92;101306.03;5073584;28;20028;-34
2022/11/03 01:58:59;;;;;;;12.13;3.00;;;;;;;11.62;87.08;101305.81;5074156;28;20028;-34
2022/11/03 02:01:25;;;;;;;10.40;2.33;;;;;;;11.63;87.29;101307.47;5073855;28;20029;-34
2022/11/03 02:04:06;;;;;;;11.50;2.65;;;;;;;11.55;87.18;101292.34;5073425;28;20039;-34
2022/11/03 02:06:31;;;;;;;9.63;2.30;;;;;;;11.62;87.23;101292.28;5073622;28;20107;-34
2022/11/03 02:09:03;;;;;;;9.32;2.80;;;;;;;11.65;87.51;101290.97;5073475;28;20486;-34
2022/11/03 02:14:15;;;;;;;9.43;2.50;;;;;;;11.66;87.71;101289.91;5072808;28;20055;-34
2022/11/03 02:16:45;;;;;;;11.00;3.08;;;;;;;11.64;87.84;101282.03;5073133;28;20396;-34
2022/11/03 02:19:36;;;;;;;11.95;2.92;;;;;;;11.65;87.84;101283.69;5072989;28;20499;-34
2022/11/03 02:22:40;;;;;;;9.32;2.40;;;;;;;11.56;87.81;101255.25;5073733;28;20505;-34
2022/11/03 02:25:11;;;;;;;11.23;2.60;;;;;;;11.67;87.86;101270.75;5073478;28;20118;-34
2022/11/03 02:27:36;;;;;;;8.73;2.47;;;;;;;11.68;88.13;101266.16;5073662;28;20040;-34
2022/11/03 02:30:02;;;;;;;12.90;3.07;;;;;;;11.67;88.06;101259.09;5072881;28;20365;-34
2022/11/03 02:32:36;;;;;;;9.18;2.00;;;;;;;11.61;88.14;101247.25;5073228;28;20028;-34
2022/11/03 02:35:21;;;;;;;13.60;3.00;;;;;;;11.60;88.29;101245.59;5073075;28;20094;-34
2022/11/03 02:37:50;;;;;;;11.05;2.55;;;;;;;11.64;88.38;101244.09;5073370;28;20346;-34
2022/11/03 02:40:22;;;;;;;13.90;3.00;;;;;;;11.59;88.18;101236.66;5073008;28;20028;-34
2022/11/03 02:42:51;;;;;;;9.65;2.20;;;;;;;11.61;88.23;101233.72;5072813;28;20551;-34
2022/11/03 02:45:19;;;;;;;9.07;2.95;;;;;;;11.65;88.36;101240.34;5072829;28;20120;-34
2022/11/03 02:47:48;;;;;;;9.50;2.42;;;;;;;11.54;87.88;101211.31;5073468;28;20056;-34
2022/11/03 02:50:13;;;;;;;9.27;3.20;;;;;;;11.65;88.34;101224.06;5072947;28;20030;-34
2022/11/03 02:52:42;;;;;;;11.52;3.17;;;;;;;11.67;88.03;101229.28;5073071;28;20107;-34
2022/11/03 02:55:41;;;;;;;10.88;2.20;;;;;;;11.65;88.15;101223.25;5072472;28;20487;-34
2022/11/03 02:58:28;;;;;;;13.45;3.25;;;;;;;11.64;88.37;101219.72;5073098;28;20429;-34
2022/11/03 03:00:56;;;;;;;6.85;2.40;;;;;;;11.52;88.64;101192.59;5072901;28;20024;-34
2022/11/03 03:03:27;;;;;;;8.52;2.13;;;;;;;11.63;88.92;101209.13;5072835;28;20020;-34
2022/11/03 03:05:59;;;;;;;10.27;2.30;;;;;;;11.62;88.77;101204.78;5072743;28;20024;-34
2022/11/03 03:08:26;;;;;;;10.45;2.55;;;;;;;11.59;89.01;101204.16;5072323;28;20111;-34
2022/11/03 03:10:52;;;;;;;10.07;2.92;;;;;;;11.54;89.20;101187.75;5072332;28;20357;-34
2022/11/03 03:13:21;;;;;;;13.32;2.63;;;;;;;11.60;89.08;101194.97;5072544;28;20448;-34
2022/11/03 03:16:19;;;;;;;10.38;2.88;;;;;;;11.60;89.16;101194.97;5073003;28;20064;-34
2022/11/03 03:18:49;;;;;;;8.60;2.40;;;;;;;11.61;89.15;101184.97;5072469;28;20053;-34
2022/11/03 03:21:21;;;;;;;10.80;2.75;;;;;;;11.54;89.30;101167.97;5072926;28;20032;-34
2022/11/03 03:24:01;;;;;;;10.68;2.97;;;;;;;11.53;89.70;101172.56;5072541;28;20020;-34
2022/11/03 03:26:33;;;;;;;9.20;2.60;;;;;;;11.58;89.66;101186.25;5072490;28;20048;-34
2022/11/03 03:29:21;;;;;;;7.72;2.50;;;;;;;11.49;89.71;101165.13;5072720;28;20115;-34
2022/11/03 03:31:56;;;;;;;11.55;2.38;;;;;;;11.58;90.29;101159.16;5073256;28;20036;-34
2022/11/03 03:34:24;;;;;;;10.50;2.65;;;;;;;11.60;89.93;101173.28;5072804;28;20036;-34
2022/11/03 03:36:51;;;;;;;12.63;2.67;;;;;;;11.60;90.01;101173.28;5072366;28;20025;-34
2022/11/03 03:39:20;;;;;;;10.80;2.63;;;;;;;11.59;89.97;101163.53;5073102;28;20086;-34
2022/11/03 03:41:47;;;;;;;9.25;2.30;;;;;;;11.58;90.10;101161.88;5074933;28;20035;-34
2022/11/03 03:44:14;;;;;;;10.88;2.50;;;;;;;11.57;90.30;101168.34;5077025;28;20028;-34
2022/11/03 03:46:59;;;;;;;10.38;2.78;;;;;;;11.54;90.13;101139.00;5075474;28;20074;-33
2022/11/03 03:49:24;;;;;;;9.88;2.60;;;;;;;11.59;90.44;101149.97;5076447;28;20124;-33
2022/11/03 03:51:50;;;;;;;7.43;2.30;;;;;;;11.62;89.88;101151.41;5076411;28;20122;-34
2022/11/03 03:54:15;;;;;;;8.10;2.50;;;;;;;11.60;90.44;101150.81;5076151;28;20051;-34
2022/11/03 03:56:47;;;;;;;9.82;2.80;;;;;;;11.60;90.59;101135.38;5075585;28;20112;-34
2022/11/03 03:59:13;;;;;;;10.18;2.92;;;;;;;11.59;90.68;101131.03;5076230;28;20028;-34
2022/11/03 04:01:38;;;;;;;9.52;2.53;;;;;;;11.58;90.37;101134.78;5075865;28;20430;-34
2022/11/03 04:04:03;;;;;;;12.07;2.67;;;;;;;11.60;90.85;101138.09;5076353;28;20020;-34
2022/11/03 04:06:29;;;;;;;12.67;3.10;;;;;;;11.57;91.18;101121.50;5076082;28;20476;-34
2022/11/03 04:08:54;;;;;;;9.97;2.77;;;;;;;11.63;91.01;101133.28;5076051;28;20309;-34
2022/11/03 04:22:15;;;;;;;9.07;2.80;;;;;;;11.60;91.68;101124.53;5075476;28;20097;-34
2022/11/03 04:24:40;;;;;;;10.63;2.72;;;;;;;11.62;91.92;101120.81;5076024;28;20512;-35
2022/11/03 04:27:26;;;;;;;8.30;2.42;;;;;;;11.62;92.26;101113.50;5075971;28;20365;-34
2022/11/03 04:29:55;;;;;;;9.25;2.63;;;;;;;11.63;92.58;101120.56;5075536;28;20110;-34
2022/11/03 04:32:20;;;;;;;10.32;2.38;;;;;;;11.63;92.45;101114.31;5075604;28;20159;-34
2022/11/03 04:34:47;;;;;;;10.17;2.47;;;;;;;11.63;92.60;101107.03;5075506;28;20475;-34
2022/11/03 04:37:13;;;;;;;10.60;2.50;;;;;;;11.64;92.58;101103.25;5074928;28;20086;-34
2022/11/03 04:39:39;;;;;;;7.72;2.13;;;;;;;11.64;92.85;101097.00;5075338;28;20035;-34
2022/11/03 04:42:20;;;;;;;9.82;2.42;;;;;;;11.63;92.86;101084.53;5074961;28;20017;-34
2022/11/03 04:44:48;;;;;;;13.52;3.58;;;;;;;11.66;92.77;101100.28;5075549;28;20522;-34
2022/11/03 04:47:15;;;;;;;7.53;1.83;;;;;;;11.65;93.33;101094.06;5074864;28;20485;-33
2022/11/03 04:49:41;;;;;;;6.70;1.90;;;;;;;11.64;93.06;101088.88;5075051;28;20032;-33
2022/11/03 04:52:16;;;;;;;9.32;2.80;;;;;;;11.64;93.16;101087.00;5074287;28;20028;-34
2022/11/03 04:54:42;;;;;;;6.63;1.95;;;;;;;11.65;93.66;101095.94;5075069;28;20032;-33
2022/11/03 04:57:12;;;;;;;10.75;2.80;;;;;;;11.65;93.78;101094.06;5074914;28;20036;-34
2022/11/03 04:59:37;;;;;;;9.93;2.38;;;;;;;11.68;93.82;101090.06;5073922;28;20035;-34
2022/11/03 05:02:08;;;;;;;10.57;2.80;;;;;;;11.68;93.68;101085.47;5075306;28;20028;-34
2022/11/03 05:04:33;;;;;;;10.55;3.25;;;;;;;11.69;94.21;101083.59;5075318;28;20263;-34
2022/11/03 05:06:59;;;;;;;7.97;2.22;;;;;;;11.59;94.24;101048.94;5074801;28;20031;-34
2022/11/03 05:09:29;;;;;;;10.27;2.40;;;;;;;11.70;94.33;101068.97;5074993;28;20350;-34
2022/11/03 05:11:55;;;;;;;7.22;1.88;;;;;;;11.69;94.37;101060.03;5074970;28;20108;-34
2022/11/03 05:14:20;;;;;;;;;;;;;;;11.73;94.42;101057.69;5074997;28;20060;-34
2022/11/03 05:16:47;;;;;;;9.50;2.23;;;;;;;11.59;94.64;101041.63;5075362;28;19966;-34
2022/11/03 05:19:25;;;;;;;10.20;2.50;;;;;;;11.69;94.62;101060.03;5074516;28;20477;-34
2022/11/03 05:21:52;;;;;;;11.77;3.22;;;;;;;11.68;94.94;101054.84;5074539;28;20098;-34
2022/11/03 05:24:20;;;;;;;7.82;2.10;;;;;;;11.67;95.04;101050.50;5074994;28;20028;-34
2022/11/03 05:26:47;;;;;;;7.93;2.30;;;;;;;11.68;95.62;101046.72;5074431;28;20436;-34
2022/11/03 05:29:16;;;;;;;8.52;2.28;;;;;;;11.65;95.43;101036.34;5074763;28;20066;-34
2022/11/03 05:31:43;;;;;;;8.00;2.28;;;;;;;11.64;95.60;101032.00;5074345;28;20031;-34
2022/11/03 05:34:41;;;;;;;10.30;2.72;;;;;;;11.70;95.83;101039.19;5074080;28;20028;-34
2022/11/03 05:37:06;;;;;;;10.13;2.65;;;;;;;11.70;95.89;101039.19;5073686;28;20124;-34
2022/11/03 05:39:42;;;;;;;7.27;2.20;;;;;;;11.70;96.16;101025.63;5073996;28;20037;-34
2022/11/03 05:42:26;;;;;;;9.25;2.03;;;;;;;11.71;96.27;101021.84;5074397;28;20024;-34
2022/11/03 05:44:51;;;;;;;8.27;2.17;;;;;;;11.63;96.33;101014.91;5074161;28;20025;-34
2022/11/03 05:47:23;;;;;;;12.32;2.90;;;;;;;11.65;96.88;101006.56;5074042;28;20028;-34
2022/11/03 05:49:51;;;;;;;12.65;2.72;;;;;;;11.64;96.91;101013.03;5073949;28;20024;-34
2022/11/03 05:52:22;;;;;;;11.52;3.47;;;;;;;11.70;97.15;101012.09;5073935;28;20047;-34
2022/11/03 05:54:48;;;;;;;9.88;2.70;;;;;;;11.65;97.55;100998.44;5073888;28;20116;-34
2022/11/03 05:57:14;;;;;;;10.50;2.50;;;;;;;11.70;97.74;101014.81;5073797;28;20384;-34
2022/11/03 05:59:42;;;;;;;9.25;2.47;;;;;;;11.72;97.91;101002.69;5074450;28;20028;-34
2022/11/03 06:02:29;;;;;;;11.57;3.30;;;;;;;11.77;97.76;101002.81;5073736;28;20480;-34
2022/11/03 06:04:54;;;;;;;10.98;2.42;;;;;;;11.77;97.77;101002.81;5074254;28;20035;-34
2022/11/03 06:07:28;;;;;;;12.68;3.25;;;;;;;11.77;97.69;100991.16;5073840;28;20414;-34
2022/11/03 06:09:54;;;;;;;8.57;2.45;;;;;;;11.71;97.84;100973.94;5073486;28;20031;-34
2022/11/03 06:12:21;;;;;;;11.85;3.03;;;;;;;11.72;97.90;100972.06;5074102;28;20024;-34
2022/11/03 06:14:47;;;;;;;9.13;2.15;;;;;;;11.77;97.79;100980.31;5073543;28;20052;-34
2022/11/03 06:17:23;;;;;;;12.82;2.97;;;;;;;11.78;97.84;100979.25;5073524;28;20368;-34
2022/11/03 06:19:51;;;;;;;9.55;2.47;;;;;;;11.81;97.75;100974.19;5073312;28;20093;-34
2022/11/03 06:22:29;;;;;;;11.70;2.92;;;;;;;11.72;97.97;100974.78;5073401;28;20116;-33
2022/11/03 06:24:59;;;;;;;11.13;2.72;;;;;;;11.77;97.97;100981.13;5073128;28;20055;-33
2022/11/03 06:27:27;;;;;;;9.68;2.97;;;;;;;11.77;97.84;100973.00;5073493;28;20107;-34
2022/11/03 06:29:58;;;;;;;9.82;2.65;;;;;;;11.70;98.32;100958.72;5073327;28;20020;-34
2022/11/03 06:32:23;;;;;;;10.73;2.45;;;;;;;11.76;97.76;100963.22;5073950;28;20425;-34
2022/11/03 06:34:52;;;;;;;8.15;2.47;;;;;;;11.77;97.72;100959.47;5073219;28;20067;-35
2022/11/03 06:37:23;;;;;;;9.38;2.50;;;;;;;11.75;98.41;100958.03;5073965;28;20107;-34
2022/11/03 06:39:50;;;;;;;11.93;2.80;;;;;;;11.77;98.01;100964.06;5073066;28;20384;-34
2022/11/03 06:42:19;;;;;;;11.50;3.05;;;;;;;11.77;98.38;100958.63;5073482;28;20130;-34
2022/11/03 06:44:47;;;;;;;10.45;2.45;;;;;;;11.79;98.08;100959.22;5072900;28;20029;-34
2022/11/03 06:47:24;;;;;;;8.65;2.40;;;;;;;11.74;98.28;100946.38;5072980;28;20077;-34
2022/11/03 06:49:51;;;;;;;6.13;2.17;;;;;;;11.79;98.21;100954.63;5073085;28;20407;-34
2022/11/03 06:52:48;;;;;;;10.32;2.63;;;;;;;11.81;98.14;100951.69;5072933;28;20032;-34
2022/11/03 06:55:25;;;;;;;9.43;2.47;;;;;;;11.82;98.17;100943.34;5072844;28;20025;-35
2022/11/03 06:57:59;;;;;;;10.85;2.90;;;;;;;11.83;98.24;100945.00;5072905;28;20039;-34
2022/11/03 07:00:27;;;;;;;8.82;2.40;;;;;;;11.83;97.83;100945.00;5073488;28;20028;-35
2022/11/03 07:03:04;;;;;;;13.50;2.78;;;;;;;11.83;97.83;100936.03;5073023;28;20115;-34
2022/11/03 07:05:31;;;;;;;10.15;2.53;;;;;;;11.87;97.55;100942.63;5073253;28;20082;-34
2022/11/03 07:08:03;;;;;;;8.80;2.08;;;;;;;11.81;97.85;100925.41;5072835;28;20035;-34
2022/11/03 07:10:32;;;;;;;9.30;2.60;;;;;;;11.90;97.66;100944.03;5072345;28;20487;-34
2022/11/03 07:13:11;;;;;;;11.48;2.97;;;;;;;11.87;97.28;100930.97;5072393;28;20504;-34
2022/11/03 07:15:38;;;;;;;7.68;2.10;;;;;;;11.93;97.21;100938.97;5074846;28;20044;-34
2022/11/03 07:18:17;;;;;;;9.38;2.47;;;;;;;11.95;97.13;100936.00;5079339;28;20078;-34
2022/11/03 07:20:43;;;;;;;8.30;2.70;;;;;;;11.95;96.92;100925.16;5079214;28;20032;-34
2022/11/03 07:23:12;;;;;;;9.87;2.13;;;;;;;11.93;96.98;100925.41;5079144;28;20127;-34
2022/11/03 07:25:37;;;;;;;17.58;2.70;;;;;;;11.93;96.58;100922.72;5079181;28;20267;-34
2022/11/03 07:28:03;;;;;;;10.83;2.60;;;;;;;12.02;96.55;100920.47;5079460;28;20036;-34
2022/11/03 07:30:32;;;;;;;10.45;2.60;;;;;;;12.04;96.09;100924.56;5078747;28;20036;-34
2022/11/03 07:33:09;;;;;;;7.88;2.13;;;;;;;12.07;95.68;100923.28;5079166;28;20024;-34
2022/11/03 07:35:44;;;;;;;8.85;2.38;;;;;;;12.05;96.12;100915.41;5079906;28;20028;-34
2022/11/03 07:38:17;;;;;;;8.13;2.50;;;;;;;12.04;95.44;100911.03;5078119;28;20122;-34
2022/11/03 07:40:43;;;;;;;8.25;2.42;;;;;;;12.08;95.51;100909.47;5079195;28;20480;-34
2022/11/03 07:43:26;;;;;;;10.15;2.38;;;;;;;12.11;95.24;100909.00;5079426;28;20048;-34
2022/11/03 07:45:53;;;;;;;11.02;2.90;;;;;;;12.04;95.07;100886.63;5079788;28;20031;-34
2022/11/03 07:48:27;;;;;;;13.60;2.38;;;;;;;12.05;95.26;100895.56;5079805;28;20035;-34
2022/11/03 07:50:55;;;;;;;9.77;2.22;;;;;;;12.09;94.86;100897.56;5079025;28;20559;-34
2022/11/03 07:53:38;;;;;;;8.95;2.60;;;;;;;12.17;94.45;100911.81;5079344;28;20368;-34
2022/11/03 07:56:25;;;;;;;9.02;2.88;;;;;;;12.17;94.53;100909.13;5079328;28;20428;-34
2022/11/03 07:58:59;;;;;;;9.52;2.40;;;;;;;12.19;94.45;100906.97;5079320;28;20044;-34
2022/11/03 08:01:35;;;;;;;7.55;2.13;;;;;;;12.21;94.03;100913.00;5079336;28;20097;-34
2022/11/03 08:04:05;;;;;;;7.30;2.23;;;;;;;12.23;93.67;100917.09;5079299;28;20032;-34
2022/11/03 08:06:31;;;;;;;7.15;2.20;;;;;;;12.25;93.88;100908.72;5079413;28;20430;-34
2022/11/03 08:08:57;;;;;;;7.97;1.83;;;;;;;12.26;93.46;100902.25;5079272;28;20063;-34
2022/11/03 08:11:23;;;;;;;8.50;2.25;;;;;;;12.29;93.43;100896.34;5078790;28;20036;-34
2022/11/03 08:13:50;;;;;;;10.40;2.28;;;;;;;12.30;93.53;100895.28;5079286;28;20131;-34
2022/11/03 08:16:16;;;;;;;13.15;2.47;;;;;;;12.34;92.93;100897.25;5079635;28;20044;-34
2022/11/03 08:18:42;;;;;;;9.32;2.58;;;;;;;12.23;92.80;100865.59;5079331;28;20041;-34
2022/11/03 08:21:07;;;;;;;8.27;2.20;;;;;;;12.28;92.64;100870.28;5079395;28;20043;-34
2022/11/03 08:23:32;;;;;;;8.20;2.17;;;;;;;12.38;92.48;100878.63;5079340;28;20464;-34
2022/11/03 08:25:57;;;;;;;9.80;2.17;;;;;;;12.39;92.35;100872.13;5079315;28;20337;-35
2022/11/03 08:28:23;;;;;;;8.87;2.63;;;;;;;12.44;92.10;100852.41;5075365;28;20020;-34
2022/11/03 08:30:48;;;;;;;7.32;2.33;;;;;;;12.36;91.96;100834.66;5075416;28;20468;-34
2022/11/03 08:33:14;;;;;;;9.30;2.75;;;;;;;12.49;91.51;100845.22;5076042;28;20032;-34
2022/11/03 08:35:39;;;;;;;8.57;2.13;;;;;;;12.51;91.47;100837.66;5075539;28;20415;-34
2022/11/03 08:38:04;;;;;;;12.38;2.47;;;;;;;12.55;90.96;100838.81;5076263;28;20036;-35
2022/11/03 08:40:30;;;;;;;11.20;2.50;;;;;;;12.58;90.97;100829.34;5075650;28;20174;-35
2022/11/03 08:42:55;;;;;;;4.83;2.10;;;;;;;12.60;90.73;100819.09;5075643;28;20036;-35
2022/11/03 08:45:20;;;;;;;11.97;2.83;;;;;;;12.62;90.31;100812.34;5075291;28;20066;-34
2022/11/03 08:47:46;;;;;;;8.57;2.07;;;;;;;12.68;89.80;100807.00;5075840;28;20263;-35
2022/11/03 08:50:11;;;;;;;8.40;2.37;;;;;;;12.71;90.26;100798.38;5075355;28;20290;-34
2022/11/03 08:52:36;;;;;;;8.70;2.07;;;;;;;12.74;89.85;100784.34;5075695;28;20035;-34
2022/11/03 08:55:02;;;;;;;8.43;2.70;;;;;;;12.77;90.24;100786.53;5075307;28;20274;-34
2022/11/03 08:57:28;;;;;;;8.45;2.60;;;;;;;12.78;89.17;100774.59;5074619;28;20049;-34
2022/11/03 08:59:54;;;;;;;6.78;2.20;;;;;;;12.83;90.06;100774.69;5075010;28;20032;-34
2022/11/03 09:02:20;;;;;;;8.13;2.20;;;;;;;12.84;89.53;100776.34;5075431;28;20024;-34
2022/11/03 09:04:45;;;;;;;7.65;2.80;;;;;;;12.82;89.18;100764.91;5075429;28;20039;-34
2022/11/03 09:07:11;;;;;;;8.57;2.10;;;;;;;12.91;88.93;100754.47;5074994;28;20126;-34
2022/11/03 09:09:36;;;;;;;8.80;2.17;;;;;;;12.89;89.19;100744.69;5075077;28;20024;-34
2022/11/03 09:12:01;;;;;;;6.67;2.00;;;;;;;13.02;89.24;100740.78;5075108;28;20032;-34
2022/11/03 09:14:27;;;;;;;8.70;2.00;;;;;;;13.07;89.09;100740.03;5074449;28;20098;-35
2022/11/03 09:16:52;;;;;;;12.57;3.27;;;;;;;13.11;88.53;100733.84;5075691;28;20271;-34
2022/11/03 09:19:17;;;;;;;7.60;2.40;;;;;;;13.14;88.88;100727.13;5074673;28;20046;-34
2022/11/03 09:21:42;;;;;;;9.27;2.63;;;;;;;13.18;89.02;100714.69;5074857;28;20033;-34
2022/11/03 09:24:08;;;;;;;10.73;2.50;;;;;;;13.14;88.88;100699.97;5074903;28;20074;-34
2022/11/03 09:26:33;;;;;;;10.02;2.95;;;;;;;13.19;88.32;100691.06;5074801;28;20473;-34
2022/11/03 09:28:58;;;;;;;8.17;2.23;;;;;;;13.26;88.60;100686.28;5075049;28;20036;-35
2022/11/03 09:31:27;;;;;;;11.97;2.27;;;;;;;13.28;88.53;100676.84;5074270;28;20287;-35
2022/11/03 09:33:53;;;;;;;8.50;2.40;;;;;;;13.27;87.98;100674.34;5074836;28;20024;-34
2022/11/03 09:36:18;;;;;;;7.20;2.30;;;;;;;13.26;88.32;100670.81;5074263;28;20051;-34
2022/11/03 09:38:43;;;;;;;8.60;2.17;;;;;;;13.26;88.37;100665.38;5074257;28;20060;-35
2022/11/03 09:41:16;;;;;;;9.63;2.13;;;;;;;13.27;87.81;100671.63;5074458;28;20086;-35
2022/11/03 09:43:42;;;;;;;11.65;2.17;;;;;;;13.26;87.60;100661.84;5074987;28;20025;-34
2022/11/03 09:46:08;;;;;;;8.13;2.30;;;;;;;13.24;87.46;100650.44;5074351;28;20031;-34
2022/11/03 09:48:33;;;;;;;11.18;2.40;;;;;;;13.24;87.53;100653.97;5074874;28;20433;-34
2022/11/03 09:51:00;;;;;;;5.20;1.75;;;;;;;13.26;87.61;100649.09;5074301;28;20028;-34
2022/11/03 09:53:25;;;;;;;5.85;1.73;;;;;;;13.26;88.16;100649.09;5074224;28;20021;-35
2022/11/03 09:55:50;;;;;;;10.25;2.67;;;;;;;13.26;87.71;100645.56;5074206;28;20082;-35
2022/11/03 09:58:17;;;;;;;7.30;2.17;;;;;;;13.24;87.44;100636.84;5074149;28;20028;-34
2022/11/03 10:00:43;;;;;;;10.70;2.80;;;;;;;13.12;86.99;100609.78;5074050;28;20024;-34
2022/11/03 10:03:14;;;;;;;9.73;3.05;;;;;;;13.22;87.32;100625.41;5074378;28;20361;-35
2022/11/03 10:05:41;;;;;;;7.20;2.10;;;;;;;13.19;88.05;100615.03;5073648;28;20112;-35
2022/11/03 10:08:19;;;;;;;9.75;2.45;;;;;;;13.17;88.19;100606.31;5073854;28;20020;-35
2022/11/03 10:10:45;;;;;;;9.35;2.20;;;;;;;13.18;87.52;100621.56;5073574;28;20029;-34
2022/11/03 10:13:21;;;;;;;6.80;2.10;;;;;;;13.18;87.04;100616.13;5074440;28;20028;-34
2022/11/03 10:15:46;;;;;;;6.63;2.03;;;;;;;13.12;86.88;100601.66;5073575;28;20044;-34
2022/11/03 10:18:12;;;;;;;8.07;2.03;;;;;;;13.20;86.54;100603.09;5074070;28;20041;-34
2022/11/03 10:20:37;;;;;;;8.25;2.45;;;;;;;13.18;87.13;100603.38;5074450;28;20365;-34
2022/11/03 10:23:03;;;;;;;5.00;1.67;;;;;;;13.15;87.28;100596.53;5074444;28;20113;-35
2022/11/03 10:25:34;;;;;;;8.67;2.33;;;;;;;13.15;86.45;100599.25;5073852;28;20028;-35
2022/11/03 10:28:23;;;;;;;8.32;2.30;;;;;;;13.18;86.59;100591.69;5073525;28;20032;-34
2022/11/03 10:30:50;;;;;;;6.57;1.80;;;;;;;13.18;85.89;100589.78;5074265;28;20055;-34
2022/11/03 10:33:36;;;;;;;7.40;1.88;;;;;;;13.18;86.23;100587.09;5073606;28;20032;-34
2022/11/03 10:36:28;;;;;;;8.00;1.80;;;;;;;13.21;86.61;100580.31;5073164;28;20039;-35
2022/11/03 10:38:54;;;;;;;6.75;1.77;;;;;;;13.25;86.10;100573.31;5051260;28;20045;-35
2022/11/03 10:41:25;;;;;;;7.03;1.80;;;;;;;13.29;85.74;100578.00;5051435;28;20037;-34
2022/11/03 10:44:18;;;;;;;9.75;2.50;;;;;;;13.36;85.81;100559.59;5051451;28;20124;-34
2022/11/03 10:47:01;;;;;;;7.35;1.90;;;;;;;13.42;85.12;100552.34;5051184;28;20472;-34
2022/11/03 10:49:29;;;;;;;6.32;1.92;;;;;;;13.46;84.76;100550.72;5051187;28;20157;-35
2022/11/03 10:52:06;;;;;;;8.77;2.45;;;;;;;13.52;84.19;100549.72;5050109;28;20462;-35
2022/11/03 10:54:34;;;;;;;4.93;1.83;;;;;;;13.59;83.94;100550.31;5051515;28;20466;-35
2022/11/03 10:57:00;;;;;;;6.82;1.95;;;;;;;13.62;83.25;100549.00;5050943;28;20401;-35
2022/11/03 10:59:36;;;;;;;6.18;1.90;;;;;;;13.67;84.11;100540.06;5050809;28;20032;-35
2022/11/03 11:02:10;;;;;;;5.78;1.80;;;;;;;13.69;83.58;100537.88;5051176;28;20501;-34
2022/11/03 11:04:35;;;;;;;5.28;1.65;;;;;;;13.78;83.84;100534.44;5050958;28;20237;-34
2022/11/03 11:07:00;;;;;;;5.97;1.88;;;;;;;13.80;83.48;100529.56;5050736;28;20141;-34
2022/11/03 11:09:27;;;;;;;7.53;2.30;;;;;;;13.84;82.08;100527.13;5050622;28;20041;-34
2022/11/03 11:12:14;;;;;;;9.18;2.10;;;;;;;13.89;82.73;100529.91;5051084;28;20664;-35
2022/11/03 11:14:50;;;;;;;6.47;1.92;;;;;;;13.95;81.16;100523.41;5050888;28;20086;-35
2022/11/03 11:17:46;;;;;;;7.10;1.92;;;;;;;14.01;81.90;100519.66;5073461;28;20401;-35
2022/11/03 11:20:17;;;;;;;8.95;2.20;;;;;;;14.04;81.17;100512.88;5051204;28;20136;-35
2022/11/03 11:22:47;;;;;;;5.85;2.15;;;;;;;14.06;81.09;100511.53;5050518;28;20036;-34
2022/11/03 11:25:12;;;;;;;5.63;1.70;;;;;;;14.05;80.00;100499.00;5051178;28;20400;-35
2022/11/03 11:27:37;;;;;;;8.70;1.92;;;;;;;14.06;79.32;100500.66;5050774;28;20116;-35
2022/11/03 11:30:06;;;;;;;7.87;2.83;;;;;;;14.02;79.78;100477.81;5050391;28;20041;-35
2022/11/03 11:32:40;;;;;;;7.53;1.92;;;;;;;14.10;79.13;100487.34;5050923;28;20029;-35
2022/11/03 11:35:10;;;;;;;5.78;1.95;;;;;;;14.10;79.99;100473.75;5050443;28;20127;-35
2022/11/03 11:37:37;;;;;;;8.05;1.98;;;;;;;14.15;79.54;100471.06;5050525;28;20049;-35
2022/11/03 11:40:13;;;;;;;7.20;2.22;;;;;;;14.18;78.65;100456.94;5050293;28;20466;-35
2022/11/03 11:43:00;;;;;;;6.47;1.80;;;;;;;14.24;79.56;100445.00;5050683;28;20146;-35
2022/11/03 11:46:03;;;;;;;6.40;2.20;;;;;;;14.27;78.27;100441.78;5051104;28;20362;-35
2022/11/03 11:48:28;;;;;;;4.57;2.00;;;;;;;14.32;78.67;100438.25;5050965;28;20029;-35
2022/11/03 11:50:56;;;;;;;7.97;2.13;;;;;;;14.33;78.29;100426.28;5050925;28;20420;-35